< < Back
Terminal Aerodrome Forecast


Current Version              Previous Versions:   1  2  3  4  5  6  7  8  9  

Terminal Aerodrome Forecast

551
FTUS44 KOHX 160500
TAFBNA
TAF
KBNA 160520Z 1606/1706 04003KT P6SM SKC
     FM161500 14009KT P6SM SCT250
     FM162300 16006KT P6SM SCT250=

Latest METAR

584
SAUS70 KWBC 161600 RRK
MTRBNA
METAR KBNA 161553Z 07006KT 10SM FEW200 SCT250 08/M06 A3035 RMK AO2
SLP278 T00831056


USA.gov is the U.S. government's official web portal to all federal, state and local government web resources and services.